アムステルダム/スキポール の空港の天気 - METARとTAF

スキポール空港(アムステルダム) ( EHAM / AMS ) - オランダ アムステルダム
飛行場実況気象(Metar)
観測時間04/19 13:25 CEST (04/19 11:25 UTC)
風向・風速南東 7m/s
視程10km以上
天気現象
なし
気温25℃
湿度41%
気圧1025hPa
METAREHAM 191125Z 13014KT CAVOK 25/11 Q1025 NOSIG
過去の天気等 Google飛行場航空写真 Wunderground天気予報

過去48時間のMETAR

飛行場予報(TAF)
発表時間: 4/19 13:18 CEST (4/19 11:18 UTC)
予報対象時間: 19日14時 CEST ~ 20日20時 CEST
風向・風速南南東 6m/s
視程10km以上
なし
19日18時 CEST ~ 19日21時 CEST に徐々に
風向・風速不定 2m/s
20日4時 CEST から 確率 40% で
視程7,000m
天気現象地霧
20日9時 CEST ~ 20日12時 CEST に徐々に
風向・風速西南西 4m/s
20日12時 CEST ~ 20日15時 CEST に徐々に
風向・風速西北西 5m/s
TAF EHAM 191118Z 1912/2018 15012KT CAVOK
BECMG 1916/1919 VRB03KT
PROB40 2002/2006 7000 MIFG
BECMG 2007/2010 24008KT
BECMG 2010/2013 29010KT